Accueil
METAR-TAF:

METAR-TAF

Aéroports :

Mecklenburg-Brunswick Regional Airport

South Hill, Virginie, États-Unis

latitude: 36-41-19N, longitude: 078-03-15W, altitude: 135 m

Observation

Le bulletin a été fait il y a 12 minutes, à 19:35 UTC
Vent 5 kt de sud/sud-ouest
Température 32°C
Humidité 49%
Pression 1012 hPa
Visibilité: 16.1 km

METAR: KAVC 101935Z AUTO 21005KT 10SM 32/20 A2987 RMK AO2 T03190196

Heure: 15:47 (19:47 UTC)


TAF: absent

Observations et prévisions météorologiques de plus de 4000 aéroports (messages METAR et TAF).

Les stations disponibles sont représentées par des disques jaunes et rouges sur la carte.

Passer la souris dessus pour voir le nom de la station.

Cliquer dessus pour voir les observations et prévisions météorologiques.

Pour changer de carte: cliquez sur les boutons verts avec une croix noire pour zoomer, sur le bouton vert avec un tiret pour effectuer un zoom arrière, ou sur les flèches vertes pour les cartes adjacentes.


METAR-TAF: